Time;durP1;ratioP1;P1;durP2;ratioP2;P2;SDS_P1;SDS_P2;PMS_P1;PMS_P2;Temp;Humidity;BMP_temperature;BMP_pressure;BME280_temperature;BME280_humidity;BME280_pressure;Samples;Min_cycle;Max_cycle;Signal;HPM_P1;HPM_P2
2023/04/21 00:00:30;;;;;;;30.30;18.50;;;;;;;5.98;73.82;98020.77;106954;1275;23178;-79
2023/04/21 00:03:18;;;;;;;22.40;16.20;;;;;;;5.91;73.97;98018.63;106850;1275;22644;-79
2023/04/21 00:05:47;;;;;;;26.10;16.70;;;;;;;5.84;74.31;98018.09;107156;1275;24284;-79
2023/04/21 00:08:16;;;;;;;19.80;15.40;;;;;;;5.73;74.52;98018.81;106997;1275;25490;-78
2023/04/21 00:10:45;;;;;;;23.60;16.50;;;;;;;5.63;74.71;98014.34;107020;1275;25249;-80
2023/04/21 00:13:13;;;;;;;23.70;18.10;;;;;;;5.52;74.86;98014.05;106991;1275;22572;-79
2023/04/21 00:15:41;;;;;;;29.00;21.80;;;;;;;5.48;74.94;98014.04;106952;1275;25355;-80
2023/04/21 00:18:09;;;;;;;31.80;19.10;;;;;;;5.51;75.22;98016.56;107029;1275;22643;-79
2023/04/21 00:20:38;;;;;;;22.40;15.30;;;;;;;5.56;75.42;98012.89;107007;1275;24071;-79
2023/04/21 00:23:06;;;;;;;18.60;14.10;;;;;;;5.60;75.76;98011.88;106993;1275;22514;-78
2023/04/21 00:25:34;;;;;;;17.50;13.40;;;;;;;5.57;75.88;98011.97;106966;1275;22559;-81
2023/04/21 00:28:02;;;;;;;18.90;13.20;;;;;;;5.53;76.02;98011.69;106925;1275;25313;-79
2023/04/21 00:30:30;;;;;;;19.10;14.20;;;;;;;5.46;76.24;98013.71;106834;1275;22530;-79
2023/04/21 00:32:58;;;;;;;24.70;18.00;;;;;;;5.40;76.32;98016.73;107008;1275;22762;-79
2023/04/21 00:35:26;;;;;;;27.80;16.60;;;;;;;5.41;76.73;98018.44;106937;1275;22964;-79
2023/04/21 00:37:54;;;;;;;19.50;13.00;;;;;;;5.45;76.80;98020.06;106836;1275;23833;-79
2023/04/21 00:40:22;;;;;;;21.60;12.90;;;;;;;5.49;76.93;98022.17;106620;1276;22547;-79
2023/04/21 00:42:50;;;;;;;20.90;13.90;;;;;;;5.57;76.66;98020.33;106890;1275;24236;-79
2023/04/21 00:45:18;;;;;;;18.50;12.60;;;;;;;5.62;77.06;98024.41;106861;1276;22547;-79
2023/04/21 00:47:46;;;;;;;18.00;15.00;;;;;;;5.59;78.23;98015.77;106897;1276;22666;-79
2023/04/21 00:50:14;;;;;;;20.90;14.90;;;;;;;5.51;78.73;98015.23;106924;1276;22534;-79
2023/04/21 00:52:43;;;;;;;26.40;17.70;;;;;;;5.44;79.14;98010.45;106578;1276;25605;-79
2023/04/21 00:55:11;;;;;;;19.00;14.30;;;;;;;5.41;79.62;98002.33;106535;1276;25394;-79
2023/04/21 00:57:40;;;;;;;21.50;16.40;;;;;;;5.43;79.62;98007.98;106625;1276;25323;-78
2023/04/21 01:00:09;;;;;;;17.00;12.90;;;;;;;5.50;79.03;98008.21;106611;1276;24538;-78
2023/04/21 01:02:39;;;;;;;17.80;12.60;;;;;;;5.56;78.86;98001.92;106842;1276;22519;-79
2023/04/21 01:05:08;;;;;;;12.90;11.40;;;;;;;5.61;78.87;98001.98;106682;1276;25323;-79
2023/04/21 01:07:38;;;;;;;18.50;11.90;;;;;;;5.67;78.83;98001.05;106889;1276;24241;-79
2023/04/21 01:10:07;;;;;;;16.80;12.00;;;;;;;5.72;78.80;97999.67;106835;1273;22525;-79
2023/04/21 01:12:45;;;;;;;16.80;13.30;;;;;;;5.79;78.88;97996.63;106741;1276;25360;-77
2023/04/21 01:15:15;;;;;;;21.50;13.10;;;;;;;5.87;78.78;98001.62;106883;1272;26519;-78
2023/04/21 01:17:44;;;;;;;25.80;14.10;;;;;;;5.94;78.62;98000.20;106900;1276;24191;-79
2023/04/21 01:20:14;;;;;;;33.70;21.20;;;;;;;6.03;78.56;98001.66;106942;1276;22528;-78
2023/04/21 01:22:43;;;;;;;39.00;21.90;;;;;;;6.13;78.52;98000.77;106918;1276;24233;-79
2023/04/21 01:25:11;;;;;;;30.50;20.40;;;;;;;6.21;78.54;98004.73;106893;1276;22548;-79
2023/04/21 01:27:39;;;;;;;27.70;18.40;;;;;;;6.27;78.60;98003.17;106883;1276;22533;-79
2023/04/21 01:30:08;;;;;;;25.20;17.70;;;;;;;6.29;78.56;98004.45;106676;1276;25364;-79
2023/04/21 01:32:37;;;;;;;36.00;24.90;;;;;;;6.29;78.49;98000.06;106666;1276;25472;-79
2023/04/21 01:35:05;;;;;;;28.40;19.70;;;;;;;6.30;78.62;97999.69;106937;1275;24475;-78
2023/04/21 01:37:34;;;;;;;32.30;20.60;;;;;;;6.35;78.71;98003.23;106825;1275;22553;-78
2023/04/21 01:40:05;;;;;;;35.90;22.40;;;;;;;6.43;78.70;98003.71;106956;1275;24360;-78
2023/04/21 01:42:37;;;;;;;30.50;16.90;;;;;;;6.51;78.70;98003.69;106935;1275;23146;-78
2023/04/21 01:45:06;;;;;;;18.60;12.90;;;;;;;6.55;79.15;97999.24;106935;1275;24413;-79
2023/04/21 01:47:36;;;;;;;17.40;12.40;;;;;;;6.51;79.15;98002.20;106959;1275;22518;-79
2023/04/21 01:50:07;;;;;;;21.30;16.30;;;;;;;6.46;78.96;97998.73;106970;1253;23935;-79
2023/04/21 01:52:35;;;;;;;23.70;17.50;;;;;;;6.44;79.01;98001.61;106996;1275;24188;-80
2023/04/21 01:55:03;;;;;;;26.40;15.40;;;;;;;6.42;79.24;97997.70;106719;1275;24234;-82
2023/04/21 01:57:31;;;;;;;16.40;14.30;;;;;;;6.44;79.26;98001.23;107154;1275;22599;-80
2023/04/21 01:59:59;;;;;;;17.70;12.70;;;;;;;6.47;79.36;98001.44;107053;1275;22677;-79
2023/04/21 02:02:27;;;;;;;18.60;13.90;;;;;;;6.48;79.33;98001.17;107005;1275;22754;-79
2023/04/21 02:04:56;;;;;;;20.30;14.60;;;;;;;6.50;79.44;97993.89;106903;1275;22559;-80
2023/04/21 02:07:24;;;;;;;18.20;15.10;;;;;;;6.50;79.41;98003.00;107048;1275;25322;-80
2023/04/21 02:09:53;;;;;;;15.00;13.50;;;;;;;6.46;79.45;98001.62;106906;1275;22528;-80
2023/04/21 02:12:23;;;;;;;17.90;12.80;;;;;;;6.42;79.39;97998.23;107032;1275;22540;-80
2023/04/21 02:14:51;;;;;;;17.50;13.80;;;;;;;6.35;79.55;97995.73;107036;1275;23367;-79
2023/04/21 02:17:19;;;;;;;19.30;13.10;;;;;;;6.33;79.44;97995.95;106678;1275;22568;-78
2023/04/21 02:19:47;;;;;;;16.50;11.90;;;;;;;6.30;79.50;97994.73;106844;1275;22797;-78
2023/04/21 02:22:15;;;;;;;18.80;12.70;;;;;;;6.27;79.96;97995.41;106946;1275;24972;-78
2023/04/21 02:24:43;;;;;;;21.40;13.90;;;;;;;6.20;80.25;97998.14;106932;1275;22741;-78
2023/04/21 02:27:12;;;;;;;17.90;13.80;;;;;;;6.11;80.06;97997.83;106932;1275;22522;-78
2023/04/21 02:29:40;;;;;;;16.20;14.10;;;;;;;6.05;80.22;98000.65;106722;1275;22690;-81
2023/04/21 02:32:08;;;;;;;19.70;16.10;;;;;;;6.00;80.61;98000.70;106953;1275;25386;-79
2023/04/21 02:34:52;;;;;;;22.40;15.70;;;;;;;5.91;80.69;98000.29;106805;1276;22662;-82
2023/04/21 02:37:20;;;;;;;19.00;16.10;;;;;;;5.86;80.69;97999.59;107073;1276;22777;-83
2023/04/21 02:39:48;;;;;;;19.20;16.80;;;;;;;5.84;80.36;98001.14;106855;1276;22724;-82
2023/04/21 02:42:16;;;;;;;21.10;15.70;;;;;;;5.83;80.62;98004.02;106781;1276;25451;-81
2023/04/21 02:44:44;;;;;;;20.00;14.90;;;;;;;5.80;80.62;98001.13;107036;1276;22594;-84
2023/04/21 02:47:14;;;;;;;22.60;15.50;;;;;;;5.79;80.72;98001.81;106967;1276;25371;-81
2023/04/21 02:49:43;;;;;;;20.30;15.60;;;;;;;5.73;80.48;98002.93;106895;1276;22530;-80
2023/04/21 02:52:12;;;;;;;21.00;14.70;;;;;;;5.69;80.30;98006.13;106884;1276;22534;-81
2023/04/21 02:54:40;;;;;;;19.70;14.10;;;;;;;5.59;80.31;98003.21;106650;1276;22578;-81
2023/04/21 02:57:09;;;;;;;17.50;15.60;;;;;;;5.50;80.51;98003.89;106897;1276;22581;-78
2023/04/21 02:59:36;;;;;;;22.10;15.20;;;;;;;5.47;80.64;98002.12;106473;1276;22680;-79
2023/04/21 03:02:04;;;;;;;22.50;16.20;;;;;;;5.40;80.94;97999.85;106734;1276;25371;-79
2023/04/21 03:04:32;;;;;;;24.00;18.70;;;;;;;5.29;81.10;98000.35;106911;1276;22566;-79
2023/04/21 03:07:01;;;;;;;27.10;19.90;;;;;;;5.18;81.19;97997.85;106921;1276;22672;-80
2023/04/21 03:09:29;;;;;;;34.20;24.90;;;;;;;5.10;81.70;97995.89;106866;1276;24449;-79
2023/04/21 03:11:57;;;;;;;26.90;21.30;;;;;;;5.02;81.45;97998.52;107445;1276;22559;-79
2023/04/21 03:14:25;;;;;;;39.80;32.00;;;;;;;4.98;81.27;97998.51;107522;1275;22738;-79
2023/04/21 03:16:53;;;;;;;30.00;25.30;;;;;;;4.96;81.41;98000.56;107159;1276;22678;-79
2023/04/21 03:19:21;;;;;;;35.50;28.60;;;;;;;4.95;81.35;97999.34;106848;1276;25227;-81
2023/04/21 03:21:50;;;;;;;37.40;24.60;;;;;;;4.90;80.99;98003.85;106703;1276;22531;-78
2023/04/21 03:24:18;;;;;;;28.60;21.30;;;;;;;4.85;81.33;97999.50;106935;1275;25472;-77
2023/04/21 03:26:46;;;;;;;26.60;20.60;;;;;;;4.82;81.70;97996.45;106657;1276;22783;-78
2023/04/21 03:29:14;;;;;;;23.60;18.70;;;;;;;4.75;82.27;98000.30;106697;1276;22521;-78
2023/04/21 03:31:42;;;;;;;24.30;19.40;;;;;;;4.68;82.00;98004.48;106923;1276;22517;-76
2023/04/21 03:34:10;;;;;;;26.20;22.50;;;;;;;4.64;82.31;98004.55;106678;1275;25252;-75
2023/04/21 03:36:38;;;;;;;32.50;21.10;;;;;;;4.55;82.16;98003.77;106551;1276;23123;-76
2023/04/21 03:39:07;;;;;;;28.60;22.80;;;;;;;4.44;81.98;98002.93;106442;1276;22628;-75
2023/04/21 03:41:47;;;;;;;25.10;20.90;;;;;;;4.34;82.20;98006.75;106772;1276;22545;-75
2023/04/21 03:44:15;;;;;;;24.60;19.40;;;;;;;4.28;82.38;98008.04;106742;1253;22546;-75
2023/04/21 03:46:43;;;;;;;24.60;20.60;;;;;;;4.24;82.69;98006.23;106750;1275;22654;-76
2023/04/21 03:49:11;;;;;;;31.30;21.50;;;;;;;4.26;82.84;98009.41;106779;1275;22543;-77
2023/04/21 03:51:39;;;;;;;31.30;23.90;;;;;;;4.22;82.73;98013.54;107477;1276;22580;-77
2023/04/21 03:54:07;;;;;;;27.40;24.40;;;;;;;4.18;83.13;98016.39;107218;1276;22625;-77
2023/04/21 03:56:35;;;;;;;30.80;26.60;;;;;;;4.16;83.05;98020.85;107427;1275;22741;-77
2023/04/21 03:59:03;;;;;;;32.20;28.80;;;;;;;4.14;83.37;98022.95;107442;1275;24215;-77
2023/04/21 04:01:32;;;;;;;37.70;33.70;;;;;;;4.13;83.30;98024.18;107392;1276;22543;-77
2023/04/21 04:04:00;;;;;;;30.30;25.70;;;;;;;4.14;83.40;98027.70;110395;1276;26560;-77
2023/04/21 04:06:29;;;;;;;30.70;25.10;;;;;;;4.21;83.25;98030.54;107044;1276;22676;-77
2023/04/21 04:08:57;;;;;;;32.10;24.00;;;;;;;4.27;83.33;98031.77;107063;1275;25326;-75
2023/04/21 04:11:25;;;;;;;30.90;21.50;;;;;;;4.28;83.93;98025.96;107064;1276;25326;-75
2023/04/21 04:13:52;;;;;;;27.00;23.90;;;;;;;4.26;84.23;98031.33;106814;1276;25327;-75
2023/04/21 04:16:20;;;;;;;31.10;26.20;;;;;;;4.27;84.18;98033.05;106759;1276;22631;-75
2023/04/21 04:18:49;;;;;;;30.70;27.60;;;;;;;4.29;84.10;98035.27;106777;1276;25237;-74
2023/04/21 04:21:17;;;;;;;30.90;27.70;;;;;;;4.31;83.94;98037.20;106806;1276;23082;-75
2023/04/21 04:23:45;;;;;;;31.60;27.10;;;;;;;4.34;84.08;98041.10;106782;1276;24300;-75
2023/04/21 04:26:13;;;;;;;28.00;25.20;;;;;;;4.34;84.08;98041.54;106718;1276;24194;-77
2023/04/21 04:28:41;;;;;;;31.90;21.90;;;;;;;4.39;84.63;98045.41;106884;1276;25695;-76
2023/04/21 04:31:09;;;;;;;32.20;26.20;;;;;;;4.42;84.89;98046.67;106945;1276;22531;-75
2023/04/21 04:33:40;;;;;;;28.00;21.20;;;;;;;4.43;85.34;98048.39;106704;1276;22547;-75
2023/04/21 04:36:10;;;;;;;24.30;18.80;;;;;;;4.42;86.18;98048.44;106739;1276;25329;-75
2023/04/21 04:38:39;;;;;;;25.60;18.30;;;;;;;4.43;87.08;98049.39;106774;1276;22521;-75
2023/04/21 04:41:07;;;;;;;32.10;23.40;;;;;;;4.46;86.67;98050.16;106757;1276;22544;-74
2023/04/21 04:43:37;;;;;;;32.00;24.40;;;;;;;4.52;86.31;98051.23;106730;1276;24306;-76
2023/04/21 04:46:07;;;;;;;30.90;26.50;;;;;;;4.61;86.45;98054.34;106825;1276;22540;-75
2023/04/21 04:48:35;;;;;;;30.30;22.60;;;;;;;4.73;86.57;98051.91;106769;1276;22773;-75
2023/04/21 04:51:04;;;;;;;37.40;28.80;;;;;;;4.82;87.18;98052.88;106826;1276;24412;-75
2023/04/21 04:53:32;;;;;;;38.50;34.00;;;;;;;4.92;86.85;98052.58;106826;1276;25483;-75
2023/04/21 04:56:00;;;;;;;38.60;34.20;;;;;;;5.07;86.77;98053.29;106799;1276;22643;-75
2023/04/21 04:58:28;;;;;;;39.70;29.80;;;;;;;5.22;86.52;98049.63;106692;1276;25464;-75
2023/04/21 05:00:56;;;;;;;32.00;24.10;;;;;;;5.39;86.31;98053.39;106708;1276;22542;-75
2023/04/21 05:03:24;;;;;;;32.20;24.90;;;;;;;5.58;86.26;98052.18;106724;1276;24340;-75
2023/04/21 05:05:53;;;;;;;31.40;23.70;;;;;;;5.72;86.34;98051.70;106751;1276;23153;-75
2023/04/21 05:08:21;;;;;;;29.80;23.00;;;;;;;5.86;86.39;98054.04;106746;1275;24173;-75
2023/04/21 05:10:49;;;;;;;24.40;19.30;;;;;;;6.01;86.55;98051.09;106745;1276;22793;-75
2023/04/21 05:13:17;;;;;;;25.80;20.60;;;;;;;6.17;86.56;98052.88;106763;1275;25408;-75
2023/04/21 05:15:45;;;;;;;25.30;19.50;;;;;;;6.37;86.40;98054.17;106712;1276;22784;-75
2023/04/21 05:18:13;;;;;;;24.20;18.80;;;;;;;6.59;86.65;98052.47;106737;1276;25324;-76
2023/04/21 05:20:41;;;;;;;29.90;19.10;;;;;;;6.80;86.47;98053.67;106728;1276;24079;-76
2023/04/21 05:23:09;;;;;;;25.70;19.00;;;;;;;7.00;86.11;98049.25;106747;1276;25378;-75
2023/04/21 05:25:37;;;;;;;36.80;20.80;;;;;;;7.18;86.34;98047.48;106719;1276;24365;-76
2023/04/21 05:28:05;;;;;;;27.40;20.40;;;;;;;7.36;86.15;98051.56;106744;1276;22557;-75
2023/04/21 05:30:33;;;;;;;31.60;20.00;;;;;;;7.52;86.09;98048.54;106710;1276;25625;-74
2023/04/21 05:33:01;;;;;;;37.60;29.30;;;;;;;7.66;85.79;98044.45;107074;1276;25403;-85
2023/04/21 05:35:30;;;;;;;37.10;29.20;;;;;;;7.82;85.64;98052.10;106978;1276;22521;-82
2023/04/21 05:37:58;;;;;;;47.00;37.30;;;;;;;7.99;85.39;98050.55;106792;1276;22533;-80
2023/04/21 05:40:26;;;;;;;42.00;31.90;;;;;;;8.16;85.49;98048.79;106926;1276;22940;-79
2023/04/21 05:42:54;;;;;;;36.60;27.90;;;;;;;8.34;85.30;98051.55;106864;1276;24067;-80
2023/04/21 05:45:22;;;;;;;37.60;27.20;;;;;;;8.51;85.26;98052.95;106913;1276;24315;-80
2023/04/21 05:47:50;;;;;;;32.10;26.20;;;;;;;8.66;85.13;98051.17;106952;1276;22529;-81
2023/04/21 05:50:18;;;;;;;34.70;28.70;;;;;;;8.79;84.91;98048.63;106641;1276;22536;-81
2023/04/21 05:52:46;;;;;;;49.70;44.90;;;;;;;8.94;84.95;98045.37;106774;1276;22992;-81
2023/04/21 05:55:14;;;;;;;49.80;38.30;;;;;;;9.07;84.66;98044.54;107180;1276;24412;-80
2023/04/21 05:57:42;;;;;;;46.00;39.40;;;;;;;9.21;84.88;98047.66;107084;1276;26601;-77
2023/04/21 06:00:12;;;;;;;53.70;46.00;;;;;;;9.34;84.75;98046.17;106947;1276;25282;-77
2023/04/21 06:02:40;;;;;;;43.40;33.90;;;;;;;9.49;84.24;98047.50;107117;1276;22587;-76
2023/04/21 06:05:08;;;;;;;43.40;32.60;;;;;;;9.63;84.16;98042.77;107094;1276;24181;-78
2023/04/21 06:07:37;;;;;;;41.40;31.20;;;;;;;9.77;84.15;98039.35;107117;1276;22629;-77
2023/04/21 06:10:06;;;;;;;49.50;42.40;;;;;;;9.91;83.79;98040.29;106866;1276;22552;-78
2023/04/21 06:12:34;;;;;;;39.20;33.50;;;;;;;10.05;83.53;98036.36;107148;1276;25247;-77
2023/04/21 06:15:02;;;;;;;41.10;33.60;;;;;;;10.23;83.41;98035.83;106895;1276;22556;-81
2023/04/21 06:17:30;;;;;;;47.00;33.70;;;;;;;10.40;83.38;98040.41;107133;1276;22785;-81
2023/04/21 06:19:58;;;;;;;37.90;30.90;;;;;;;10.54;83.32;98036.55;106885;1276;25406;-80
2023/04/21 06:22:27;;;;;;;42.50;29.00;;;;;;;10.68;83.07;98038.16;107149;1276;22636;-82
2023/04/21 06:24:55;;;;;;;38.80;27.40;;;;;;;10.82;82.87;98039.10;107180;1276;22967;-81
2023/04/21 06:27:23;;;;;;;38.90;27.40;;;;;;;10.97;82.62;98043.52;107112;1276;22556;-82
2023/04/21 06:29:55;;;;;;;35.00;26.70;;;;;;;11.09;82.05;98044.06;107543;1253;25594;-81
2023/04/21 06:32:23;;;;;;;33.00;25.60;;;;;;;11.23;81.91;98042.98;107556;1276;26504;-82
2023/04/21 06:34:51;;;;;;;36.50;25.30;;;;;;;11.35;80.81;98040.77;107456;1276;24204;-82
2023/04/21 06:37:19;;;;;;;34.60;25.60;;;;;;;11.49;80.80;98041.29;107208;1276;25492;-82
2023/04/21 06:39:47;;;;;;;31.50;24.90;;;;;;;11.64;80.95;98042.71;107090;1276;25255;-82
2023/04/21 06:42:15;;;;;;;37.10;24.50;;;;;;;11.78;80.90;98044.35;107095;1276;24297;-80
2023/04/21 06:44:43;;;;;;;35.10;24.50;;;;;;;11.91;80.40;98044.55;107071;1267;22637;-82
2023/04/21 06:47:11;;;;;;;30.30;24.50;;;;;;;12.03;79.68;98042.84;107127;1276;25503;-81
2023/04/21 06:49:39;;;;;;;31.50;23.30;;;;;;;12.15;78.76;98041.58;107192;1276;24170;-81
2023/04/21 06:52:07;;;;;;;37.00;22.10;;;;;;;12.26;78.46;98039.59;107911;1276;24241;-79
2023/04/21 06:54:35;;;;;;;34.70;22.50;;;;;;;12.38;78.38;98038.90;108084;1276;22550;-78
2023/04/21 06:57:03;;;;;;;30.60;20.60;;;;;;;12.49;77.45;98037.48;108172;1276;22621;-79
2023/04/21 06:59:33;;;;;;;31.00;20.00;;;;;;;12.60;77.74;98032.52;107923;1276;25284;-79
2023/04/21 07:02:01;;;;;;;22.20;18.10;;;;;;;12.73;77.50;98039.66;107980;1276;22527;-79
2023/04/21 07:04:30;;;;;;;25.50;16.80;;;;;;;12.87;77.13;98035.42;108070;1276;22536;-82
2023/04/21 07:07:26;;;;;;;24.50;16.20;;;;;;;13.00;76.57;98032.21;108245;1276;22530;-79
2023/04/21 07:09:54;;;;;;;;;;;;;;;13.13;76.02;98032.30;107054;1276;22511;-82
2023/04/21 07:12:22;;;;;;;23.70;14.40;;;;;;;13.26;75.58;98031.95;107078;1276;22703;-80
2023/04/21 07:14:50;;;;;;;21.50;14.20;;;;;;;13.38;74.70;98031.24;106805;1276;22594;-82
2023/04/21 07:17:18;;;;;;;19.10;13.60;;;;;;;13.53;74.70;98030.69;107032;1276;22529;-82
2023/04/21 07:19:46;;;;;;;23.20;14.00;;;;;;;13.67;73.94;98032.97;106939;1276;24587;-80
2023/04/21 07:22:14;;;;;;;25.60;15.20;;;;;;;13.81;72.33;98032.46;107135;1276;22683;-81
2023/04/21 07:24:42;;;;;;;21.70;14.00;;;;;;;13.92;72.75;98028.82;107102;1276;25520;-80
2023/04/21 07:27:10;;;;;;;19.60;12.20;;;;;;;14.03;69.85;98028.16;107258;1276;25529;-81
2023/04/21 07:29:38;;;;;;;18.80;11.30;;;;;;;14.10;67.99;98024.21;106708;1276;24186;-79
2023/04/21 07:32:06;;;;;;;15.50;10.40;;;;;;;14.23;69.60;98024.91;107251;1276;25374;-80
2023/04/21 07:34:34;;;;;;;18.40;12.20;;;;;;;14.39;70.39;98026.42;107199;1276;22597;-81
2023/04/21 07:37:02;;;;;;;24.50;12.30;;;;;;;14.54;68.70;98027.10;107185;1276;22540;-80
2023/04/21 07:39:30;;;;;;;18.50;12.10;;;;;;;14.67;69.55;98023.61;107050;1276;22521;-79
2023/04/21 07:41:58;;;;;;;23.60;12.10;;;;;;;14.83;68.43;98023.06;107013;1276;22823;-79
2023/04/21 07:44:28;;;;;;;19.50;11.60;;;;;;;14.99;68.69;98025.42;107268;1276;22533;-79
2023/04/21 07:46:56;;;;;;;16.10;10.80;;;;;;;15.12;66.78;98023.39;107263;1276;24314;-79
2023/04/21 07:49:24;;;;;;;20.90;11.00;;;;;;;15.18;67.70;98021.96;107291;1276;26807;-81
2023/04/21 07:51:52;;;;;;;13.60;10.40;;;;;;;15.29;68.01;98019.67;107038;1276;24234;-79
2023/04/21 07:54:20;;;;;;;17.80;10.00;;;;;;;15.39;66.91;98021.01;107025;1276;23393;-80
2023/04/21 07:56:48;;;;;;;18.30;10.20;;;;;;;15.46;65.81;98016.37;106802;1275;22524;-80
2023/04/21 07:59:17;;;;;;;12.90;9.70;;;;;;;15.59;65.64;98017.61;107098;1276;22576;-80
2023/04/21 08:01:45;;;;;;;14.20;9.70;;;;;;;15.72;65.17;98014.78;106892;1276;22537;-80
2023/04/21 08:04:13;;;;;;;11.60;7.80;;;;;;;15.80;61.53;98018.45;107118;1276;22610;-78
2023/04/21 08:06:41;;;;;;;11.90;8.40;;;;;;;15.90;60.71;98019.61;106989;1276;22640;-79
2023/04/21 08:09:09;;;;;;;10.40;7.90;;;;;;;16.01;59.44;98024.36;107047;1276;22541;-79
2023/04/21 08:11:37;;;;;;;10.10;8.00;;;;;;;16.08;57.12;98025.02;107042;1276;24372;-78
2023/04/21 08:14:05;;;;;;;13.80;8.80;;;;;;;16.12;57.71;98021.52;107106;1276;22542;-80
2023/04/21 08:16:34;;;;;;;11.10;8.10;;;;;;;16.19;56.91;98023.56;107058;1276;22667;-79
2023/04/21 08:19:02;;;;;;;10.50;8.00;;;;;;;16.28;57.37;98018.91;107055;1276;25398;-79
2023/04/21 08:21:30;;;;;;;10.50;8.50;;;;;;;16.39;57.14;98020.32;107001;1276;22640;-79
2023/04/21 08:23:59;;;;;;;12.10;8.90;;;;;;;16.48;54.63;98016.27;107069;1276;22540;-79
2023/04/21 08:26:28;;;;;;;10.30;8.30;;;;;;;16.58;52.87;98015.08;107134;1276;24062;-79
2023/04/21 08:28:56;;;;;;;8.30;7.30;;;;;;;16.64;53.53;98014.67;107115;1276;25622;-80
2023/04/21 08:31:25;;;;;;;10.60;8.10;;;;;;;16.70;52.51;98013.30;107173;1276;22633;-80
2023/04/21 08:33:53;;;;;;;13.60;10.80;;;;;;;16.60;52.44;98014.77;107109;1276;25329;-79
2023/04/21 08:36:30;;;;;;;11.60;8.90;;;;;;;16.48;50.42;98011.07;107198;1275;22532;-79
2023/04/21 08:38:59;;;;;;;9.90;8.20;;;;;;;16.39;51.61;98015.48;107322;1275;22493;-80
2023/04/21 08:41:27;;;;;;;12.00;8.10;;;;;;;16.54;50.67;98013.30;107281;1275;25228;-79
2023/04/21 08:44:02;;;;;;;14.10;8.10;;;;;;;16.73;49.75;98008.28;107193;1275;23946;-78
2023/04/21 08:46:32;;;;;;;11.60;8.90;;;;;;;16.88;44.74;98005.65;107205;1275;22514;-78
2023/04/21 08:49:00;;;;;;;13.80;8.20;;;;;;;16.93;44.75;98003.58;107170;1275;25026;-78
2023/04/21 08:51:30;;;;;;;10.40;8.20;;;;;;;17.07;45.57;98004.48;107158;1275;22574;-78
2023/04/21 08:53:58;;;;;;;11.90;8.30;;;;;;;17.11;47.10;98007.56;107161;1275;22617;-78
2023/04/21 08:56:26;;;;;;;10.30;7.70;;;;;;;17.27;45.58;98004.29;107136;1275;24729;-78
2023/04/21 08:58:55;;;;;;;8.20;7.40;;;;;;;17.48;45.63;98001.39;107183;1275;25403;-78
2023/04/21 09:01:23;;;;;;;10.70;7.50;;;;;;;17.70;45.01;98000.11;107203;1275;25476;-78
2023/04/21 09:03:51;;;;;;;10.80;7.80;;;;;;;17.87;43.17;97993.23;107121;1275;22564;-78
2023/04/21 09:06:20;;;;;;;8.40;7.40;;;;;;;17.99;43.78;97994.38;107125;1275;22938;-79
2023/04/21 09:08:56;;;;;;;10.80;8.10;;;;;;;18.06;43.86;98000.02;107192;1275;22517;-79
2023/04/21 09:11:24;;;;;;;14.00;7.40;;;;;;;18.10;43.51;97997.34;107257;1275;25529;-79
2023/04/21 09:13:56;;;;;;;12.80;8.50;;;;;;;18.30;43.03;97994.00;107176;1266;22548;-78
2023/04/21 09:16:33;;;;;;;11.10;8.30;;;;;;;18.39;42.42;97993.61;106984;1276;23460;-78
2023/04/21 09:19:01;;;;;;;10.90;8.90;;;;;;;18.30;42.55;97992.52;107216;1275;22637;-78
2023/04/21 09:21:30;;;;;;;9.80;8.20;;;;;;;18.29;41.42;97990.22;107196;1275;22648;-80
2023/04/21 09:24:06;;;;;;;11.00;8.50;;;;;;;18.28;41.74;97990.38;107239;1275;22529;-80
2023/04/21 09:26:35;;;;;;;8.80;7.40;;;;;;;18.22;39.23;97993.70;107164;1275;22511;-78
2023/04/21 09:29:07;;;;;;;10.20;7.40;;;;;;;18.24;40.40;97995.23;106972;1275;24317;-78
2023/04/21 09:31:35;;;;;;;9.80;8.30;;;;;;;18.43;40.26;97993.02;107126;1275;22549;-77
2023/04/21 09:34:23;;;;;;;9.60;7.80;;;;;;;18.62;38.30;97986.61;106806;1275;23027;-77
2023/04/21 09:37:02;;;;;;;8.50;7.10;;;;;;;18.70;37.78;97989.95;107014;1276;24598;-77
2023/04/21 09:39:33;;;;;;;11.00;7.80;;;;;;;18.77;38.88;97986.55;106861;1276;25137;-80
2023/04/21 09:42:16;;;;;;;8.30;7.00;;;;;;;18.92;38.78;97986.25;106873;1276;22664;-79
2023/04/21 09:44:58;;;;;;;12.00;7.50;;;;;;;19.10;38.72;97980.05;106923;1276;25494;-80
2023/04/21 09:47:41;;;;;;;10.20;7.90;;;;;;;19.23;36.27;97977.64;107119;1276;24442;-78
2023/04/21 09:50:12;;;;;;;12.30;7.20;;;;;;;19.25;35.44;97979.64;107365;1276;23280;-80
2023/04/21 09:52:43;;;;;;;8.10;7.30;;;;;;;19.23;35.89;97980.77;107502;1276;25300;-79
2023/04/21 09:55:15;;;;;;;10.00;7.20;;;;;;;19.08;36.53;97954.80;107323;1276;22645;-79
2023/04/21 09:57:52;;;;;;;10.60;9.00;;;;;;;19.34;36.77;97987.13;106877;1276;25333;-80
2023/04/21 10:00:23;;;;;;;10.40;8.50;;;;;;;19.23;34.98;97983.35;107086;1275;25388;-80
2023/04/21 10:02:52;;;;;;;8.70;7.90;;;;;;;18.83;35.62;97979.16;107105;1276;24179;-81
2023/04/21 10:05:21;;;;;;;9.90;8.90;;;;;;;18.45;34.26;97979.52;106851;1276;24221;-80
2023/04/21 10:07:50;;;;;;;9.80;8.80;;;;;;;18.05;34.58;97981.59;106843;1276;24255;-80
2023/04/21 10:10:43;;;;;;;10.00;8.90;;;;;;;17.91;36.11;97975.66;106866;1276;25555;-80
2023/04/21 10:13:15;;;;;;;10.10;8.80;;;;;;;17.72;35.28;97976.56;107100;1276;22783;-80
2023/04/21 10:15:46;;;;;;;11.90;8.80;;;;;;;17.41;34.35;97971.55;107093;1276;22637;-80
2023/04/21 10:18:24;;;;;;;11.90;8.90;;;;;;;17.01;34.26;97973.88;106840;1276;25420;-81
2023/04/21 10:21:20;;;;;;;10.90;9.70;;;;;;;16.94;35.28;97975.02;106930;1276;24191;-80
2023/04/21 10:23:52;;;;;;;13.50;10.70;;;;;;;17.14;35.75;97973.83;106870;1276;22643;-81
2023/04/21 10:26:25;;;;;;;13.60;10.10;;;;;;;17.31;36.63;97977.71;106858;1276;25535;-81
2023/04/21 10:28:59;;;;;;;12.70;10.20;;;;;;;17.48;36.73;97972.19;107098;1276;24283;-80
2023/04/21 10:31:50;;;;;;;11.70;9.10;;;;;;;17.46;36.60;97968.52;107088;1276;25520;-80
2023/04/21 10:34:33;;;;;;;12.50;8.50;;;;;;;17.29;36.96;97970.43;107174;1276;23373;-80
2023/04/21 10:37:04;;;;;;;9.70;8.80;;;;;;;17.15;36.32;97965.87;107064;1276;22546;-80
2023/04/21 10:39:35;;;;;;;11.70;9.10;;;;;;;17.11;37.19;97966.50;107042;1276;22738;-80
2023/04/21 10:42:12;;;;;;;12.30;9.50;;;;;;;17.16;37.16;97965.48;107010;1276;22532;-79
2023/04/21 10:44:42;;;;;;;12.50;10.00;;;;;;;17.19;37.04;97963.31;107047;1261;22565;-78
2023/04/21 10:47:10;;;;;;;13.20;9.60;;;;;;;17.13;36.94;97963.91;107102;1276;22583;-78
2023/04/21 10:49:39;;;;;;;11.00;9.00;;;;;;;17.05;36.83;97962.95;107016;1276;22794;-79
2023/04/21 10:52:09;;;;;;;12.70;9.80;;;;;;;16.98;37.32;97960.19;107039;1276;24302;-78
2023/04/21 10:55:05;;;;;;;13.00;9.10;;;;;;;17.11;36.98;97962.52;107266;1266;23158;-79
2023/04/21 10:57:34;;;;;;;10.10;8.00;;;;;;;17.20;36.19;97963.38;107118;1276;22538;-80
2023/04/21 11:00:05;;;;;;;10.50;7.60;;;;;;;17.02;35.54;97962.56;107105;1276;25348;-79
2023/04/21 11:02:34;;;;;;;9.60;8.60;;;;;;;16.81;36.44;97961.33;107171;1272;22518;-78
2023/04/21 11:05:08;;;;;;;9.50;8.50;;;;;;;16.73;36.89;97960.09;107045;1276;22525;-76
2023/04/21 11:07:36;;;;;;;12.00;8.40;;;;;;;16.90;37.24;97956.09;107043;1276;22528;-77
2023/04/21 11:10:08;;;;;;;12.00;7.70;;;;;;;17.29;37.28;97950.81;106897;1276;22636;-75
2023/04/21 11:12:38;;;;;;;12.30;6.90;;;;;;;17.71;36.00;97950.00;106899;1276;22734;-76
2023/04/21 11:15:12;;;;;;;11.00;6.20;;;;;;;18.07;35.75;97943.80;106830;1276;22526;-78
2023/04/21 11:17:42;;;;;;;7.20;4.90;;;;;;;18.38;34.88;97946.21;106873;1276;24254;-78
2023/04/21 11:20:10;;;;;;;9.30;6.00;;;;;;;18.81;35.65;97944.99;107118;1276;22586;-78
2023/04/21 11:22:38;;;;;;;9.00;5.90;;;;;;;19.16;34.87;97946.80;107066;1276;24362;-78
2023/04/21 11:25:17;;;;;;;7.70;5.60;;;;;;;19.40;34.57;97942.52;107025;1276;22531;-78
2023/04/21 11:27:56;;;;;;;8.70;5.40;;;;;;;19.63;34.92;97932.20;107131;1264;22848;-80